• Join FlightAware (Why Join?)
  • Login
  • US Flag 
01:39AM EDT


 

Airport Tracker/Info


-or-


 

Live Flight TrackerFlight Track Log ✈ EJA829P ✈ 10-Nov-2013 ✈ KBWI - KABE

Flight Track Log - Related Links

Times and Time Zones

All times are in EST time to prevent confusion due to time zone crossing. See the EJA829P flight status page for this flight to view local times or setup timezone preferences in your user account.

Time Position Orientation Groundspeed Altitude Reporting Facility
EST Latitude Longitude Course Direction KTS MPH feet Rate Location/Type
12:01PM 39.2667 -76.7667 322° Northwest 245 282 6,700  Level Potomac TRACON
12:02PM 39.3333 -76.7833 349° North 256 295 9,800 1,020 Climbing Potomac TRACON
12:04PM 39.4853 -76.6944 24° Northeast 306 352 10,000 60 Climbing New York Center
12:05PM 39.4397 -76.4532 32° Northeast  Level Estimated
12:05PM 39.5692 -76.6422 26° Northeast 314 361 10,000  Level New York Center
12:06PM 39.6467 -76.5922 26° Northeast 314 361 10,000  Level New York Center
12:07PM 39.7283 -76.5422 25° Northeast 314 361 10,000  Level New York Center
12:08PM 39.8058 -76.4917 27° Northeast 314 361 10,000  Level New York Center
12:09PM 39.8875 -76.4417 25° Northeast 320 368 10,000 -60 Level New York Center
12:10PM 39.9672 -76.3883 27° Northeast 320 368 9,900  Descending New York Center
12:11PM 40.0467 -76.3378 26° Northeast 320 368 10,000  Climbing New York Center
12:12PM 40.1264 -76.2819 28° Northeast 315 362 9,900  Descending New York Center
12:13PM 40.1953 -76.1947 44° Northeast 325 374 10,000  Climbing New York Center
12:14PM 40.2594 -76.1128 44° Northeast 325 374 10,000  Level New York Center
12:15PM 40.3258 -76.0256 45° Northeast 330 380 10,000 -180 Level New York Center
12:16PM 40.3922 -75.9378 45° Northeast 335 386 9,700 -540 Descending New York Center
12:17PM 40.4275 -75.8450 63° Northeast 307 353 9,000 -360 Descending New York Center
12:18PM 40.4425 -75.7369 80° East 302 348 9,000 -660 Level New York Center
12:19PM 40.4578 -75.6181 80° East 302 348 7,700 -1,680 Descending New York Center
12:20PM 40.4928 -75.5306 62° Northeast 288 331 5,700 -1,800 Descending New York Center
12:21PM 40.5397 -75.4517 52° Northeast 283 326 4,100 -900 Descending New York Center
12:22PM 40.5800 -75.3781 54° Northeast 265 305 4,000 -300 Descending New York Center
12:23PM 40.6250 -75.2936 55° Northeast 254 292 3,500 -540 Descending New York Center
12:24PM 40.6694 -75.2772 16° North 194 223 3,000 -780 Descending New York Center
12:25PM 40.6969 -75.3203 310° West 133 153 2,000 -600 Descending New York Center
12:26PM 40.6994 -75.3614 275° West 119 137 1,800 -360 Descending New York Center
12:27PM 40.6839 -75.3850 229° Southwest 106 122 1,300 -540 Descending New York Center